createdAt,value
2022-09-07T00:00:38.621Z,4.50
2022-09-07T00:01:38.614Z,5.50
2022-09-07T00:02:38.651Z,5.60
2022-09-07T00:04:38.664Z,5.60
2022-09-07T00:05:38.590Z,5.30
2022-09-07T00:06:38.579Z,5.20
2022-09-07T00:07:38.572Z,4.60
2022-09-07T00:08:38.564Z,5.30
2022-09-07T00:09:38.559Z,4.70
2022-09-07T00:10:38.548Z,5.20
2022-09-07T00:11:38.544Z,5.10
2022-09-07T00:12:38.536Z,5.40
2022-09-07T00:13:38.532Z,5.50
2022-09-07T00:14:38.521Z,5.50
2022-09-07T00:15:38.518Z,5.80
2022-09-07T00:16:38.601Z,5.70
2022-09-07T00:17:38.503Z,5.50
2022-09-07T00:18:41.331Z,5.20
2022-09-07T00:19:38.491Z,5.40
2022-09-07T00:20:38.480Z,5.20
2022-09-07T00:21:38.475Z,5.50
2022-09-07T00:22:38.466Z,6.10
2022-09-07T00:23:38.465Z,5.90
2022-09-07T00:24:38.452Z,5.30
2022-09-07T00:25:38.497Z,6.00
2022-09-07T00:26:38.438Z,5.20
2022-09-07T00:27:38.431Z,6.60
2022-09-07T00:28:38.424Z,6.60
2022-09-07T00:29:38.420Z,7.30
2022-09-07T00:30:38.410Z,6.70
2022-09-07T00:31:38.479Z,6.50
2022-09-07T00:32:38.396Z,7.00
2022-09-07T00:33:38.392Z,6.30
2022-09-07T00:34:38.387Z,6.40
2022-09-07T00:35:38.376Z,6.20
2022-09-07T00:36:38.366Z,6.80
2022-09-07T00:37:38.364Z,7.40
2022-09-07T00:38:38.354Z,6.70
2022-09-07T00:39:38.423Z,5.90
2022-09-07T00:40:38.339Z,6.70
2022-09-07T00:41:38.347Z,6.90
2022-09-07T00:42:38.331Z,7.50
2022-09-07T00:43:38.321Z,6.20
2022-09-07T00:44:38.313Z,7.20
2022-09-07T00:45:38.306Z,7.10
2022-09-07T00:46:38.372Z,6.50
2022-09-07T00:47:38.293Z,7.20
2022-09-07T00:48:38.284Z,6.40
2022-09-07T00:49:38.279Z,7.00
2022-09-07T00:50:38.270Z,7.50
2022-09-07T00:51:38.264Z,7.00
2022-09-07T00:52:38.255Z,7.10
2022-09-07T00:53:38.256Z,7.20
2022-09-07T00:54:38.244Z,6.90
2022-09-07T00:55:38.233Z,8.00
2022-09-07T00:56:38.228Z,7.70
2022-09-07T00:57:38.220Z,8.20
2022-09-07T00:58:38.214Z,9.00
2022-09-07T00:59:38.205Z,8.40
2022-09-07T01:00:38.201Z,9.00
2022-09-07T01:01:38.321Z,10.60
2022-09-07T01:02:38.369Z,8.40
2022-09-07T01:03:38.178Z,8.70
2022-09-07T01:04:38.173Z,8.50
2022-09-07T01:05:38.164Z,9.60
2022-09-07T01:06:38.161Z,9.60
2022-09-07T01:07:38.149Z,9.60
2022-09-07T01:08:38.144Z,10.20
2022-09-07T01:09:38.135Z,9.70
2022-09-07T01:10:38.130Z,9.40
2022-09-07T01:11:38.121Z,9.70
2022-09-07T01:12:38.116Z,10.20
2022-09-07T01:13:38.107Z,9.70
2022-09-07T01:14:38.102Z,8.90
2022-09-07T01:15:38.106Z,10.70
2022-09-07T01:16:38.088Z,11.40
2022-09-07T01:17:38.080Z,11.00
2022-09-07T01:18:38.074Z,10.30
2022-09-07T01:19:38.064Z,10.60
2022-09-07T01:20:38.059Z,10.50
2022-09-07T01:21:38.051Z,12.80
2022-09-07T01:22:38.048Z,11.30
2022-09-07T01:23:38.037Z,10.80
2022-09-07T01:24:38.032Z,10.50
2022-09-07T01:25:38.023Z,11.00
2022-09-07T01:26:38.018Z,11.40
2022-09-07T01:27:38.010Z,11.00
2022-09-07T01:28:38.003Z,11.50
2022-09-07T01:29:37.995Z,11.60
2022-09-07T01:30:37.990Z,11.80
2022-09-07T01:31:38.080Z,11.90
2022-09-07T01:32:37.974Z,12.10
2022-09-07T01:33:37.965Z,11.30
2022-09-07T01:34:37.961Z,11.10
2022-09-07T01:35:37.951Z,11.40
2022-09-07T01:36:37.945Z,11.80
2022-09-07T01:37:37.936Z,12.00
2022-09-07T01:38:37.934Z,11.20
2022-09-07T01:39:37.983Z,12.20
2022-09-07T01:40:37.923Z,12.30
2022-09-07T01:41:37.910Z,12.10
2022-09-07T01:42:37.904Z,12.80
2022-09-07T01:43:37.893Z,12.60
2022-09-07T01:44:37.991Z,13.30
2022-09-07T01:45:37.881Z,12.50
2022-09-07T01:46:37.979Z,12.30
2022-09-07T01:47:37.867Z,13.70
2022-09-07T01:48:37.862Z,13.40
2022-09-07T01:49:37.852Z,13.10
2022-09-07T01:50:37.848Z,12.20
2022-09-07T01:51:37.838Z,12.90
2022-09-07T01:52:37.834Z,13.50
2022-09-07T01:53:37.829Z,12.10
2022-09-07T01:54:37.820Z,12.40
2022-09-07T01:55:37.909Z,12.60
2022-09-07T01:56:37.805Z,12.60
2022-09-07T01:57:37.797Z,12.40
2022-09-07T01:58:37.793Z,12.90
2022-09-07T01:59:37.782Z,11.90
2022-09-07T02:00:37.777Z,12.60
2022-09-07T02:01:37.823Z,13.30
2022-09-07T02:02:37.847Z,12.10
2022-09-07T02:03:37.753Z,13.60
2022-09-07T02:04:37.748Z,12.60
2022-09-07T02:05:37.742Z,12.60
2022-09-07T02:06:37.736Z,11.90
2022-09-07T02:07:37.726Z,12.80
2022-09-07T02:08:37.720Z,12.90
2022-09-07T02:09:37.712Z,11.50
2022-09-07T02:10:37.718Z,12.70
2022-09-07T02:11:37.699Z,11.80
2022-09-07T02:12:37.694Z,12.40
2022-09-07T02:13:37.685Z,12.30
2022-09-07T02:14:37.681Z,12.10
2022-09-07T02:15:37.715Z,12.30
2022-09-07T02:16:37.667Z,12.60
2022-09-07T02:17:37.656Z,11.50
2022-09-07T02:18:37.653Z,11.10
2022-09-07T02:19:37.643Z,11.20
2022-09-07T02:20:37.639Z,10.40
2022-09-07T02:21:37.628Z,10.10
2022-09-07T02:22:37.627Z,10.60
2022-09-07T02:23:37.615Z,10.40
2022-09-07T02:24:37.625Z,10.40
2022-09-07T02:25:37.601Z,10.80
2022-09-07T02:26:37.597Z,10.30
2022-09-07T02:27:37.587Z,10.20
2022-09-07T02:28:37.582Z,10.70
2022-09-07T02:29:37.576Z,9.20
2022-09-07T02:30:37.569Z,9.70
2022-09-07T02:31:37.558Z,10.00
2022-09-07T02:32:37.559Z,9.20
2022-09-07T02:33:37.545Z,9.10
2022-09-07T02:34:37.541Z,9.60
2022-09-07T02:35:37.532Z,9.20
2022-09-07T02:36:37.526Z,9.00
2022-09-07T02:37:37.529Z,9.40
2022-09-07T02:38:37.512Z,8.50
2022-09-07T02:39:37.594Z,8.90
2022-09-07T02:40:37.497Z,7.90
2022-09-07T02:41:37.488Z,8.40
2022-09-07T02:42:37.485Z,8.10
2022-09-07T02:43:37.474Z,9.80
2022-09-07T02:44:37.469Z,8.40
2022-09-07T02:45:37.459Z,8.10
2022-09-07T02:46:37.636Z,7.80
2022-09-07T02:47:37.445Z,8.10
2022-09-07T02:48:37.443Z,8.40
2022-09-07T02:49:37.432Z,7.70
2022-09-07T02:50:37.426Z,8.80
2022-09-07T02:51:37.415Z,8.80
2022-09-07T02:52:37.425Z,7.80
2022-09-07T02:53:37.402Z,9.00
2022-09-07T02:54:37.397Z,7.20
2022-09-07T02:55:37.389Z,7.90
2022-09-07T02:56:37.482Z,7.50
2022-09-07T02:57:37.373Z,7.50
2022-09-07T02:58:37.369Z,7.90
2022-09-07T02:59:37.363Z,7.50
2022-09-07T03:00:37.377Z,7.90
2022-09-07T03:01:37.379Z,7.50
2022-09-07T03:02:37.456Z,6.90
2022-09-07T03:03:37.330Z,7.50
2022-09-07T03:04:37.325Z,8.60
2022-09-07T03:05:37.318Z,8.20
2022-09-07T03:06:37.311Z,7.70
2022-09-07T03:07:42.193Z,8.00
2022-09-07T03:08:37.294Z,7.40
2022-09-07T03:09:37.292Z,7.60
2022-09-07T03:10:37.297Z,7.50
2022-09-07T03:11:37.273Z,6.70
2022-09-07T03:12:37.266Z,7.30
2022-09-07T03:13:37.257Z,6.40
2022-09-07T03:14:37.255Z,5.80
2022-09-07T03:15:37.275Z,6.70
2022-09-07T03:16:37.237Z,5.80
2022-09-07T03:17:37.227Z,6.00
2022-09-07T03:18:37.237Z,7.00
2022-09-07T03:19:37.217Z,6.60
2022-09-07T03:20:37.207Z,6.50
2022-09-07T03:21:37.199Z,6.10
2022-09-07T03:22:37.195Z,6.40
2022-09-07T03:23:37.185Z,7.00
2022-09-07T03:24:37.179Z,6.70
2022-09-07T03:25:37.171Z,7.00
2022-09-07T03:26:37.164Z,6.50
2022-09-07T03:27:37.255Z,6.70
2022-09-07T03:28:37.150Z,5.60
2022-09-07T03:29:40.269Z,6.00
2022-09-07T03:30:37.170Z,6.00
2022-09-07T03:31:37.125Z,5.70
2022-09-07T03:32:37.121Z,5.60
2022-09-07T03:33:37.112Z,6.00
2022-09-07T03:34:37.106Z,6.20
2022-09-07T03:35:37.096Z,5.80
2022-09-07T03:36:37.092Z,5.80
2022-09-07T03:37:37.084Z,5.50
2022-09-07T03:38:37.077Z,6.20
2022-09-07T03:39:37.091Z,6.40
2022-09-07T03:40:37.062Z,6.70
2022-09-07T03:41:37.054Z,6.00
2022-09-07T03:42:37.050Z,6.90
2022-09-07T03:43:37.038Z,7.10
2022-09-07T03:44:37.036Z,6.30
2022-09-07T03:45:37.191Z,6.20
2022-09-07T03:46:37.021Z,6.20
2022-09-07T03:47:37.009Z,6.30
2022-09-07T03:48:37.105Z,6.60
2022-09-07T03:49:36.997Z,6.20
2022-09-07T03:50:36.992Z,5.90
2022-09-07T03:51:36.982Z,5.90
2022-09-07T03:52:36.976Z,6.00
2022-09-07T03:53:36.968Z,6.10
2022-09-07T03:54:39.606Z,5.60
2022-09-07T03:55:36.955Z,6.10
2022-09-07T03:56:36.949Z,6.50
2022-09-07T03:57:36.939Z,6.10
2022-09-07T03:58:36.934Z,5.50
2022-09-07T03:59:36.925Z,5.70
2022-09-07T04:00:36.920Z,6.00
2022-09-07T04:01:37.037Z,6.20
2022-09-07T04:02:36.927Z,5.90
2022-09-07T04:03:36.898Z,5.70
2022-09-07T04:04:36.892Z,5.50
2022-09-07T04:05:36.885Z,5.70
2022-09-07T04:06:36.878Z,5.70
2022-09-07T04:07:36.874Z,5.80
2022-09-07T04:08:36.862Z,5.50
2022-09-07T04:09:36.855Z,5.40
2022-09-07T04:10:36.849Z,5.30
2022-09-07T04:11:36.840Z,5.80
2022-09-07T04:12:36.838Z,5.60
2022-09-07T04:13:36.825Z,5.80
2022-09-07T04:14:36.822Z,5.40
2022-09-07T04:15:36.824Z,6.10
2022-09-07T04:16:36.877Z,6.00
2022-09-07T04:17:36.798Z,5.80
2022-09-07T04:18:36.793Z,5.40
2022-09-07T04:19:36.783Z,6.40
2022-09-07T04:20:36.784Z,5.60
2022-09-07T04:21:36.773Z,5.80
2022-09-07T04:22:36.764Z,6.00
2022-09-07T04:23:36.755Z,5.20
2022-09-07T04:24:36.751Z,6.00
2022-09-07T04:25:36.742Z,5.40
2022-09-07T04:26:36.735Z,5.80
2022-09-07T04:27:36.726Z,6.20
2022-09-07T04:28:36.724Z,5.70
2022-09-07T04:29:36.714Z,5.80
2022-09-07T04:30:36.757Z,5.30
2022-09-07T04:31:36.698Z,6.20
2022-09-07T04:32:36.693Z,5.50
2022-09-07T04:33:36.685Z,6.00
2022-09-07T04:34:36.680Z,5.60
2022-09-07T04:35:36.670Z,5.40
2022-09-07T04:36:36.666Z,5.90
2022-09-07T04:37:36.658Z,5.90
2022-09-07T04:38:36.651Z,6.10
2022-09-07T04:39:36.698Z,5.40
2022-09-07T04:40:36.640Z,5.50
2022-09-07T04:41:36.627Z,6.10
2022-09-07T04:42:36.624Z,6.20
2022-09-07T04:43:36.613Z,6.10
2022-09-07T04:44:36.608Z,6.30
2022-09-07T04:45:36.642Z,6.10
2022-09-07T04:46:36.598Z,5.60
2022-09-07T04:47:36.584Z,6.00
2022-09-07T04:48:36.579Z,6.90
2022-09-07T04:49:36.572Z,6.50
2022-09-07T04:50:36.587Z,6.30
2022-09-07T04:51:36.555Z,5.90
2022-09-07T04:52:36.553Z,5.60
2022-09-07T04:53:36.556Z,6.00
2022-09-07T04:54:36.537Z,6.00
2022-09-07T04:55:36.529Z,5.80
2022-09-07T04:56:36.522Z,5.60
2022-09-07T04:57:36.514Z,6.40
2022-09-07T04:58:36.508Z,5.70
2022-09-07T04:59:36.499Z,5.90
2022-09-07T05:00:36.493Z,5.90
2022-09-07T05:01:36.547Z,6.10
2022-09-07T05:02:36.639Z,6.30
2022-09-07T05:03:36.471Z,6.10
2022-09-07T05:04:36.466Z,6.00
2022-09-07T05:05:36.456Z,6.00
2022-09-07T05:06:36.452Z,6.10
2022-09-07T05:07:36.442Z,6.00
2022-09-07T05:08:36.437Z,6.20
2022-09-07T05:09:36.428Z,5.50
2022-09-07T05:10:36.420Z,6.60
2022-09-07T05:11:36.414Z,6.30
2022-09-07T05:12:36.407Z,5.90
2022-09-07T05:13:36.400Z,6.40
2022-09-07T05:14:36.391Z,6.70
2022-09-07T05:15:36.384Z,6.30
2022-09-07T05:16:36.414Z,6.50
2022-09-07T05:17:36.371Z,6.60
2022-09-07T05:18:36.362Z,6.30
2022-09-07T05:19:36.362Z,6.50
2022-09-07T05:20:36.347Z,6.40
2022-09-07T05:21:36.343Z,6.50
2022-09-07T05:22:36.332Z,7.00
2022-09-07T05:23:36.326Z,6.30
2022-09-07T05:24:36.317Z,6.90
2022-09-07T05:25:36.312Z,6.80
2022-09-07T05:26:36.310Z,6.80
2022-09-07T05:27:36.297Z,7.50
2022-09-07T05:28:36.293Z,6.90
2022-09-07T05:30:06.598Z,6.50
2022-09-07T05:31:36.286Z,7.10
2022-09-07T05:32:36.260Z,5.60
2022-09-07T05:34:36.245Z,6.80
2022-09-07T05:35:36.239Z,6.30
2022-09-07T05:36:36.230Z,6.60
2022-09-07T05:37:36.223Z,6.40
2022-09-07T05:38:36.215Z,6.00
2022-09-07T05:39:36.262Z,6.00
2022-09-07T05:40:40.530Z,5.90
2022-09-07T05:41:36.194Z,6.70
2022-09-07T05:42:36.185Z,6.50
2022-09-07T05:43:36.214Z,6.10
2022-09-07T05:45:36.217Z,6.70
2022-09-07T05:46:36.154Z,6.20
2022-09-07T05:47:36.150Z,5.80
2022-09-07T05:48:36.140Z,5.80
2022-09-07T05:49:36.134Z,5.10
2022-09-07T05:50:36.123Z,4.80
2022-09-07T05:51:36.133Z,5.40
2022-09-07T05:52:36.109Z,5.10
2022-09-07T05:53:36.104Z,5.20
2022-09-07T05:54:36.095Z,4.90
2022-09-07T05:55:36.088Z,4.50
2022-09-07T05:56:36.266Z,4.50
2022-09-07T05:57:36.076Z,4.70
2022-09-07T05:58:36.069Z,4.80
2022-09-07T05:59:36.063Z,5.10
2022-09-07T06:00:36.053Z,4.60
2022-09-07T06:01:36.046Z,4.80
2022-09-07T06:02:39.694Z,4.80
2022-09-07T06:03:36.118Z,4.50
2022-09-07T06:04:36.025Z,4.70
2022-09-07T06:05:36.019Z,4.60
2022-09-07T06:06:36.213Z,4.50
2022-09-07T06:07:36.004Z,4.40
2022-09-07T06:08:35.998Z,4.40
2022-09-07T06:09:36.279Z,4.20
2022-09-07T06:10:43.478Z,4.40
2022-09-07T06:11:35.979Z,4.20
2022-09-07T06:12:35.970Z,4.30
2022-09-07T06:13:35.965Z,4.40
2022-09-07T06:14:35.959Z,4.10
2022-09-07T06:15:35.953Z,3.90
2022-09-07T06:16:35.996Z,4.00
2022-09-07T06:17:35.942Z,3.50
2022-09-07T06:18:35.937Z,3.40
2022-09-07T06:19:35.927Z,3.50
2022-09-07T06:20:35.919Z,3.70
2022-09-07T06:21:35.914Z,4.10
2022-09-07T06:22:35.906Z,3.60
2022-09-07T06:23:35.903Z,3.70
2022-09-07T06:24:35.896Z,3.90
2022-09-07T06:25:35.890Z,3.80
2022-09-07T06:26:35.884Z,3.90
2022-09-07T06:27:35.878Z,3.70
2022-09-07T06:28:35.869Z,3.70
2022-09-07T06:29:35.871Z,3.20
2022-09-07T06:30:35.860Z,3.80
2022-09-07T06:31:35.936Z,3.50
2022-09-07T06:32:43.197Z,3.40
2022-09-07T06:33:35.844Z,3.60
2022-09-07T06:34:35.840Z,3.30
2022-09-07T06:35:35.831Z,3.20
2022-09-07T06:36:35.827Z,3.10
2022-09-07T06:37:35.821Z,3.00
2022-09-07T06:38:35.815Z,3.30
2022-09-07T06:39:35.834Z,3.40
2022-09-07T06:40:35.805Z,2.90
2022-09-07T06:42:35.791Z,3.20
2022-09-07T06:43:35.789Z,3.20
2022-09-07T06:44:35.781Z,3.30
2022-09-07T06:45:35.837Z,4.00
2022-09-07T06:47:35.769Z,3.50
2022-09-07T06:48:35.761Z,3.30
2022-09-07T06:49:35.758Z,4.00
2022-09-07T06:50:35.751Z,3.60
2022-09-07T06:51:35.747Z,3.60
2022-09-07T06:53:36.780Z,4.10
2022-09-07T06:55:35.736Z,4.10
2022-09-07T06:56:35.720Z,3.90
2022-09-07T06:57:35.719Z,3.60
2022-09-07T06:58:39.134Z,4.20
2022-09-07T06:59:35.711Z,3.50
2022-09-07T07:00:35.767Z,3.80
2022-09-07T07:01:35.698Z,4.10
2022-09-07T07:02:35.693Z,3.80
2022-09-07T07:03:35.780Z,3.90
2022-09-07T07:04:40.625Z,4.10
2022-09-07T07:05:35.685Z,3.50
2022-09-07T07:06:35.674Z,3.60
2022-09-07T07:07:35.670Z,3.70
2022-09-07T07:08:35.663Z,3.90
2022-09-07T07:09:35.661Z,3.90
2022-09-07T07:10:35.655Z,4.30
2022-09-07T07:11:35.652Z,4.10
2022-09-07T07:13:55.344Z,3.70
2022-09-07T07:14:55.336Z,4.00
2022-09-07T07:15:55.431Z,3.40
2022-09-07T07:16:55.325Z,3.30
2022-09-07T07:17:59.121Z,3.60
2022-09-07T07:18:55.319Z,3.30
2022-09-07T07:19:55.315Z,3.20
2022-09-07T07:20:55.308Z,3.20
2022-09-07T07:22:55.300Z,3.30
2022-09-07T07:23:55.297Z,3.00
2022-09-07T07:24:55.291Z,3.20
2022-09-07T07:25:55.289Z,3.20
2022-09-07T07:26:55.284Z,4.20
2022-09-07T07:27:55.314Z,4.40
2022-09-07T07:29:03.553Z,3.60
2022-09-07T07:29:55.271Z,3.60
2022-09-07T07:30:55.275Z,2.80
2022-09-07T07:31:55.265Z,3.00
2022-09-07T07:32:55.306Z,2.80
2022-09-07T07:33:55.321Z,3.10
2022-09-07T07:34:55.252Z,3.10
2022-09-07T07:35:55.259Z,3.40
2022-09-07T07:36:55.243Z,3.30
2022-09-07T07:41:57.458Z,3.70
2022-09-07T07:42:55.424Z,3.10
2022-09-07T07:43:55.220Z,2.90
2022-09-07T07:45:55.295Z,3.10
2022-09-07T07:46:55.279Z,3.00
2022-09-07T07:47:55.209Z,3.00
2022-09-07T07:48:55.203Z,2.90
2022-09-07T07:50:30.781Z,2.70
2022-09-07T07:50:55.196Z,3.00
2022-09-07T07:53:55.510Z,3.00
2022-09-07T07:54:55.181Z,2.70
2022-09-07T07:55:55.181Z,2.60
2022-09-07T07:57:55.172Z,2.90
2022-09-07T07:58:55.170Z,3.00
2022-09-07T07:59:55.165Z,3.20
2022-09-07T08:00:56.337Z,3.00
2022-09-07T08:01:55.303Z,2.90
2022-09-07T08:02:55.158Z,2.40
2022-09-07T08:03:55.152Z,2.70
2022-09-07T08:04:55.165Z,2.20
2022-09-07T08:05:55.168Z,2.50
2022-09-07T08:06:55.146Z,2.70
2022-09-07T08:07:55.141Z,3.10
2022-09-07T08:08:55.140Z,2.70
2022-09-07T08:09:55.134Z,2.80
2022-09-07T08:10:55.133Z,3.20
2022-09-07T08:11:55.126Z,2.70
2022-09-07T08:12:55.127Z,3.60
2022-09-07T08:13:55.121Z,3.10
2022-09-07T08:14:55.121Z,2.50
2022-09-07T08:15:55.149Z,3.00
2022-09-07T08:16:55.213Z,2.80
2022-09-07T08:17:55.109Z,2.40
2022-09-07T08:18:55.107Z,2.60
2022-09-07T08:19:55.112Z,2.80
2022-09-07T08:20:55.104Z,2.60
2022-09-07T08:21:55.114Z,2.90
2022-09-07T08:22:55.098Z,2.60
2022-09-07T08:23:55.094Z,2.70
2022-09-07T08:24:55.091Z,2.40
2022-09-07T08:25:55.086Z,2.50
2022-09-07T08:26:55.086Z,2.40
2022-09-07T08:27:55.080Z,2.90
2022-09-07T08:28:55.086Z,2.50
2022-09-07T08:29:55.075Z,2.70
2022-09-07T08:30:55.072Z,2.30
2022-09-07T08:31:55.132Z,2.10
2022-09-07T08:32:55.066Z,1.80
2022-09-07T08:33:55.063Z,2.50
2022-09-07T08:34:55.062Z,2.50
2022-09-07T08:35:55.057Z,2.40
2022-09-07T08:36:55.074Z,2.10
2022-09-07T08:37:55.073Z,2.30
2022-09-07T08:38:55.058Z,2.80
2022-09-07T08:39:55.068Z,2.30
2022-09-07T08:40:55.046Z,2.60
2022-09-07T08:41:55.045Z,3.10
2022-09-07T08:42:55.042Z,2.80
2022-09-07T08:43:55.039Z,2.40
2022-09-07T08:44:55.037Z,2.40
2022-09-07T08:45:55.041Z,2.20
2022-09-07T08:46:55.143Z,2.60
2022-09-07T08:47:55.043Z,2.70
2022-09-07T08:48:55.028Z,2.30
2022-09-07T08:49:55.025Z,2.50
2022-09-07T08:50:55.025Z,2.10
2022-09-07T08:51:55.019Z,2.80
2022-09-07T08:52:55.019Z,2.30
2022-09-07T08:53:55.046Z,2.30
2022-09-07T08:54:55.015Z,1.90
2022-09-07T08:55:55.010Z,1.80
2022-09-07T08:57:25.005Z,2.10
2022-09-07T08:57:55.006Z,1.70
2022-09-07T08:58:55.007Z,2.30
2022-09-07T08:59:55.003Z,2.20
2022-09-07T09:01:30.788Z,1.70
2022-09-07T09:05:55.161Z,2.00
2022-09-07T09:06:55.176Z,1.60
2022-09-07T09:07:54.986Z,2.20
2022-09-07T09:08:54.985Z,1.70
2022-09-07T09:09:55.009Z,2.20
2022-09-07T09:10:54.981Z,1.90
2022-09-07T09:11:54.978Z,2.10
2022-09-07T09:12:54.979Z,2.80
2022-09-07T09:13:54.974Z,1.70
2022-09-07T09:14:54.974Z,2.20
2022-09-07T09:15:55.006Z,2.00
2022-09-07T09:16:54.972Z,2.20
2022-09-07T09:17:54.966Z,2.10
2022-09-07T09:18:54.966Z,2.00
2022-09-07T09:19:54.962Z,2.00
2022-09-07T09:20:54.962Z,1.90
2022-09-07T09:21:54.959Z,2.10
2022-09-07T09:22:54.960Z,1.90
2022-09-07T09:23:54.954Z,1.90
2022-09-07T09:24:54.958Z,1.80
2022-09-07T09:25:54.974Z,2.20
2022-09-07T09:26:54.955Z,2.10
2022-09-07T09:27:54.949Z,2.00
2022-09-07T09:28:54.951Z,2.00
2022-09-07T09:29:54.947Z,2.30
2022-09-07T09:30:55.009Z,2.10
2022-09-07T09:31:54.943Z,1.80
2022-09-07T09:32:54.945Z,2.00
2022-09-07T09:33:54.941Z,2.00
2022-09-07T09:34:54.942Z,2.30
2022-09-07T09:35:54.939Z,1.70
2022-09-07T09:36:54.938Z,2.00
2022-09-07T09:37:54.935Z,1.90
2022-09-07T09:38:54.938Z,1.80
2022-09-07T09:39:57.079Z,2.00
2022-09-07T09:40:54.932Z,1.70
2022-09-07T09:41:54.952Z,2.30
2022-09-07T09:42:54.932Z,1.90
2022-09-07T09:43:54.926Z,2.20
2022-09-07T09:44:54.928Z,1.90
2022-09-07T09:47:55.040Z,1.80
2022-09-07T09:48:54.923Z,1.80
2022-09-07T09:49:54.921Z,2.20
2022-09-07T09:52:54.917Z,1.70
2022-09-07T09:53:54.914Z,2.00
2022-09-07T09:54:57.648Z,2.00
2022-09-07T09:55:54.912Z,2.30
2022-09-07T09:56:54.913Z,2.00
2022-09-07T09:59:57.662Z,2.00
2022-09-07T10:04:54.901Z,2.40
2022-09-07T10:05:54.898Z,2.10
2022-09-07T10:06:54.899Z,1.70
2022-09-07T10:07:54.896Z,2.00
2022-09-07T10:08:54.898Z,2.00
2022-09-07T10:09:54.894Z,1.70
2022-09-07T10:10:54.894Z,2.40
2022-09-07T10:12:10.322Z,2.40
2022-09-07T10:12:54.906Z,1.90
2022-09-07T10:13:54.907Z,2.20
2022-09-07T10:14:54.889Z,2.30
2022-09-07T10:15:54.967Z,1.90
2022-09-07T10:16:55.729Z,2.60
2022-09-07T10:17:54.883Z,2.20
2022-09-07T10:18:54.884Z,1.90
2022-09-07T10:19:54.880Z,1.80
2022-09-07T10:20:54.883Z,1.80
2022-09-07T10:21:54.879Z,1.90
2022-09-07T10:22:54.880Z,1.80
2022-09-07T10:23:54.876Z,1.60
2022-09-07T10:24:54.891Z,1.90
2022-09-07T10:25:54.875Z,1.90
2022-09-07T10:26:54.877Z,2.30
2022-09-07T10:27:54.872Z,2.10
2022-09-07T10:29:10.636Z,1.80
2022-09-07T10:29:54.986Z,2.00
2022-09-07T10:30:54.906Z,2.20
2022-09-07T10:31:54.866Z,1.80
2022-09-07T10:32:54.866Z,1.70
2022-09-07T10:34:54.863Z,2.40
2022-09-07T10:35:54.863Z,1.80
2022-09-07T10:36:54.863Z,2.00
2022-09-07T10:37:54.855Z,1.90
2022-09-07T10:38:54.859Z,1.70
2022-09-07T10:40:00.099Z,1.70
2022-09-07T10:40:54.853Z,2.00
2022-09-07T10:41:54.851Z,2.10
2022-09-07T10:43:54.847Z,1.90
2022-09-07T10:44:54.885Z,2.00
2022-09-07T10:45:54.878Z,1.90
2022-09-07T10:46:56.590Z,2.20
2022-09-07T10:47:54.840Z,2.00
2022-09-07T10:48:54.838Z,2.30
2022-09-07T10:50:54.836Z,1.60
2022-09-07T10:51:54.833Z,1.70
2022-09-07T10:52:54.832Z,1.80
2022-09-07T10:54:54.934Z,1.90
2022-09-07T10:55:54.825Z,2.10
2022-09-07T10:56:54.829Z,1.90
2022-09-07T10:57:54.933Z,2.00
2022-09-07T10:59:03.062Z,1.90
2022-09-07T11:00:10.736Z,1.90
2022-09-07T11:00:54.821Z,2.00
2022-09-07T11:01:54.935Z,2.10
2022-09-07T11:03:54.851Z,1.40
2022-09-07T11:04:54.851Z,2.00
2022-09-07T11:05:54.810Z,2.20
2022-09-07T11:06:54.826Z,2.90
2022-09-07T11:07:54.811Z,2.10
2022-09-07T11:09:54.804Z,1.60
2022-09-07T11:10:54.816Z,1.60
2022-09-07T11:12:03.190Z,1.70
2022-09-07T11:12:54.802Z,2.00
2022-09-07T11:14:11.944Z,2.40
2022-09-07T11:14:54.805Z,2.20
2022-09-07T11:15:54.916Z,1.90
2022-09-07T11:16:54.897Z,1.80
2022-09-07T11:17:54.832Z,2.10
2022-09-07T11:19:35.137Z,2.30
2022-09-07T11:19:54.793Z,1.90
2022-09-07T11:20:54.943Z,1.50
2022-09-07T11:21:56.054Z,2.10
2022-09-07T11:22:54.790Z,1.60
2022-09-07T11:23:54.788Z,2.10
2022-09-07T11:25:54.785Z,1.50
2022-09-07T11:26:54.785Z,1.80
2022-09-07T11:27:54.823Z,2.40
2022-09-07T11:29:54.783Z,2.00
2022-09-07T11:30:59.656Z,2.00
2022-09-07T11:31:54.793Z,1.80
2022-09-07T11:32:54.779Z,1.80
2022-09-07T11:34:24.804Z,1.40
2022-09-07T11:34:54.866Z,1.80
2022-09-07T11:35:54.795Z,2.00
2022-09-07T11:36:54.790Z,1.80
2022-09-07T11:37:54.775Z,1.90
2022-09-07T11:38:54.771Z,1.50
2022-09-07T11:39:54.804Z,2.00
2022-09-07T11:40:54.784Z,1.80
2022-09-07T11:41:54.774Z,1.70
2022-09-07T11:42:54.768Z,1.70
2022-09-07T11:43:54.786Z,2.10
2022-09-07T11:44:54.767Z,1.70
2022-09-07T11:45:54.835Z,2.10
2022-09-07T11:46:54.785Z,2.10
2022-09-07T11:47:54.767Z,1.70
2022-09-07T11:48:54.772Z,2.00
2022-09-07T11:49:58.611Z,1.90
2022-09-07T11:50:54.778Z,1.40
2022-09-07T11:52:54.766Z,1.90
2022-09-07T11:53:54.791Z,1.70
2022-09-07T11:54:54.785Z,1.70
2022-09-07T11:55:54.762Z,1.80
2022-09-07T11:56:54.805Z,1.60
2022-09-07T11:57:55.724Z,1.70
2022-09-07T11:58:54.763Z,1.70
2022-09-07T11:59:54.759Z,1.60
2022-09-07T12:00:54.862Z,1.70
2022-09-07T12:01:54.765Z,1.80
2022-09-07T12:02:59.677Z,2.00
2022-09-07T12:03:54.875Z,1.50
2022-09-07T12:04:56.493Z,1.80
2022-09-07T12:05:54.782Z,1.40
2022-09-07T12:06:54.759Z,1.60
2022-09-07T12:07:54.757Z,2.00
2022-09-07T12:08:54.760Z,1.90
2022-09-07T12:09:54.758Z,1.80
2022-09-07T12:10:54.757Z,1.80
2022-09-07T12:11:54.754Z,1.80
2022-09-07T12:12:54.754Z,1.80
2022-09-07T12:13:54.754Z,1.40
2022-09-07T12:14:54.756Z,1.90
2022-09-07T12:15:54.808Z,1.50
2022-09-07T12:16:54.754Z,1.90
2022-09-07T12:17:54.752Z,1.40
2022-09-07T12:18:54.754Z,2.30
2022-09-07T12:19:54.749Z,2.30
2022-09-07T12:20:54.752Z,1.50
2022-09-07T12:21:54.768Z,1.70
2022-09-07T12:22:54.758Z,1.30
2022-09-07T12:23:54.748Z,1.60
2022-09-07T12:24:54.751Z,1.70
2022-09-07T12:25:54.768Z,2.40
2022-09-07T12:26:54.753Z,1.80
2022-09-07T12:27:54.747Z,1.60
2022-09-07T12:28:54.749Z,1.80
2022-09-07T12:29:54.747Z,1.60
2022-09-07T12:30:54.831Z,1.70
2022-09-07T12:31:59.635Z,1.90
2022-09-07T12:32:56.083Z,2.10
2022-09-07T12:33:54.744Z,1.80
2022-09-07T12:34:54.747Z,2.10
2022-09-07T12:35:54.744Z,2.00
2022-09-07T12:36:54.745Z,1.90
2022-09-07T12:37:54.760Z,2.20
2022-09-07T12:38:54.742Z,2.30
2022-09-07T12:39:54.792Z,1.80
2022-09-07T12:40:54.740Z,1.80
2022-09-07T12:42:54.748Z,1.90
2022-09-07T12:43:54.735Z,2.10
2022-09-07T12:44:54.737Z,1.90
2022-09-07T12:45:54.839Z,1.70
2022-09-07T12:46:54.736Z,1.80
2022-09-07T12:47:54.731Z,1.90
2022-09-07T12:48:54.733Z,2.00
2022-09-07T12:49:54.729Z,1.70
2022-09-07T12:50:54.733Z,2.00
2022-09-07T12:52:09.094Z,1.70
2022-09-07T12:52:54.729Z,1.90
2022-09-07T12:53:57.722Z,1.80
2022-09-07T12:55:16.154Z,1.50
2022-09-07T12:57:54.723Z,2.20
2022-09-07T12:58:54.724Z,1.80
2022-09-07T12:59:55.214Z,1.90
2022-09-07T13:00:54.720Z,1.70
2022-09-07T13:01:54.828Z,1.80
2022-09-07T13:02:54.728Z,1.90
2022-09-07T13:03:54.714Z,1.70
2022-09-07T13:04:54.716Z,1.90
2022-09-07T13:05:54.820Z,1.70
2022-09-07T13:07:02.388Z,1.50
2022-09-07T13:08:04.108Z,2.10
2022-09-07T13:08:54.714Z,2.10
2022-09-07T13:09:54.730Z,1.40
2022-09-07T13:10:54.713Z,1.60
2022-09-07T13:11:54.711Z,1.60
2022-09-07T13:12:57.331Z,1.90
2022-09-07T13:14:04.197Z,1.80
2022-09-07T13:14:54.712Z,1.80
2022-09-07T13:15:55.587Z,1.90
2022-09-07T13:17:54.706Z,1.80
2022-09-07T13:18:54.709Z,1.80
2022-09-07T13:19:54.705Z,2.60
2022-09-07T13:20:54.706Z,1.40
2022-09-07T13:21:54.743Z,1.40
2022-09-07T13:22:54.705Z,1.60
2022-09-07T13:23:54.704Z,1.80
2022-09-07T13:24:54.704Z,2.20
2022-09-07T13:25:54.721Z,1.70
2022-09-07T13:26:54.718Z,1.60
2022-09-07T13:27:54.700Z,1.60
2022-09-07T13:28:54.971Z,2.00
2022-09-07T13:29:55.207Z,1.70
2022-09-07T13:30:54.767Z,1.80
2022-09-07T13:31:54.696Z,1.60
2022-09-07T13:33:09.975Z,1.60
2022-09-07T13:33:54.699Z,1.80
2022-09-07T13:34:54.800Z,1.60
2022-09-07T13:35:54.696Z,1.50
2022-09-07T13:36:54.698Z,1.60
2022-09-07T13:37:54.695Z,1.60
2022-09-07T13:38:54.698Z,1.90
2022-09-07T13:39:54.804Z,1.50
2022-09-07T13:40:54.694Z,2.00
2022-09-07T13:41:54.710Z,1.70
2022-09-07T13:42:54.694Z,2.00
2022-09-07T13:43:54.690Z,1.90
2022-09-07T13:44:54.692Z,1.70
2022-09-07T13:45:54.751Z,2.00
2022-09-07T13:46:54.692Z,1.60
2022-09-07T13:47:54.691Z,1.70
2022-09-07T13:48:54.692Z,1.70
2022-09-07T13:49:56.043Z,2.00
2022-09-07T13:50:54.690Z,1.70
2022-09-07T13:51:54.687Z,1.50
2022-09-07T13:52:54.687Z,1.90
2022-09-07T13:53:54.685Z,1.90
2022-09-07T13:54:54.687Z,1.70
2022-09-07T13:55:54.684Z,1.60
2022-09-07T13:56:54.686Z,1.80
2022-09-07T13:57:54.701Z,1.50
2022-09-07T13:58:54.687Z,2.00
2022-09-07T13:59:54.682Z,1.80
2022-09-07T14:00:54.782Z,1.70